sensor_id;sensor_type;location;lat;lon;timestamp;pressure;altitude;pressure_sealevel;temperature;humidity
64158;BME280;50449;51.528;5.076;2023-04-25T00:00:56;101014.75;;;14.80;49.43
64158;BME280;50449;51.528;5.076;2023-04-25T00:03:21;101020.44;;;14.79;49.39
64158;BME280;50449;51.528;5.076;2023-04-25T00:05:47;101016.09;;;14.78;49.31
64158;BME280;50449;51.528;5.076;2023-04-25T00:08:13;101018.00;;;14.77;49.41
64158;BME280;50449;51.528;5.076;2023-04-25T00:10:38;101020.72;;;14.77;49.33
64158;BME280;50449;51.528;5.076;2023-04-25T00:13:03;101017.44;;;14.75;49.49
64158;BME280;50449;51.528;5.076;2023-04-25T00:15:29;101021.28;;;14.74;49.27
64158;BME280;50449;51.528;5.076;2023-04-25T00:17:57;101021.53;;;14.73;49.36
64158;BME280;50449;51.528;5.076;2023-04-25T00:20:24;101014.44;;;14.71;49.28
64158;BME280;50449;51.528;5.076;2023-04-25T00:22:50;101018.25;;;14.70;49.47
64158;BME280;50449;51.528;5.076;2023-04-25T00:25:16;101019.34;;;14.69;49.45
64158;BME280;50449;51.528;5.076;2023-04-25T00:27:41;101023.13;;;14.68;49.34
64158;BME280;50449;51.528;5.076;2023-04-25T00:30:07;101023.13;;;14.68;49.42
64158;BME280;50449;51.528;5.076;2023-04-25T00:32:33;101013.34;;;14.67;49.47
64158;BME280;50449;51.528;5.076;2023-04-25T00:34:58;101016.06;;;14.67;49.32
64158;BME280;50449;51.528;5.076;2023-04-25T00:37:24;101015.50;;;14.65;49.42
64158;BME280;50449;51.528;5.076;2023-04-25T00:39:50;101016.59;;;14.64;49.22
64158;BME280;50449;51.528;5.076;2023-04-25T00:42:16;101022.28;;;14.63;49.70
64158;BME280;50449;51.528;5.076;2023-04-25T00:44:42;101022.28;;;14.63;49.21
64158;BME280;50449;51.528;5.076;2023-04-25T00:47:08;101021.72;;;14.61;49.23
64158;BME280;50449;51.528;5.076;2023-04-25T00:49:33;101020.09;;;14.60;49.37
64158;BME280;50449;51.528;5.076;2023-04-25T00:51:59;101023.63;;;14.60;49.49
64158;BME280;50449;51.528;5.076;2023-04-25T00:54:25;101029.31;;;14.59;49.22
64158;BME280;50449;51.528;5.076;2023-04-25T00:56:51;101025.78;;;14.58;49.61
64158;BME280;50449;51.528;5.076;2023-04-25T00:59:16;101027.69;;;14.58;49.52
64158;BME280;50449;51.528;5.076;2023-04-25T01:01:43;101019.78;;;14.56;49.70
64158;BME280;50449;51.528;5.076;2023-04-25T01:04:10;101020.06;;;14.55;49.44
64158;BME280;50449;51.528;5.076;2023-04-25T01:06:36;101021.13;;;14.54;49.50
64158;BME280;50449;51.528;5.076;2023-04-25T01:09:02;101023.84;;;14.54;49.55
64158;BME280;50449;51.528;5.076;2023-04-25T01:11:28;101024.91;;;14.53;49.44
64158;BME280;50449;51.528;5.076;2023-04-25T01:13:53;101025.16;;;14.51;49.42
64158;BME280;50449;51.528;5.076;2023-04-25T01:16:18;101019.72;;;14.51;49.41
64158;BME280;50449;51.528;5.076;2023-04-25T01:18:45;101026.25;;;14.50;49.46
64158;BME280;50449;51.528;5.076;2023-04-25T01:21:11;101023.78;;;14.48;49.16
64158;BME280;50449;51.528;5.076;2023-04-25T01:23:39;101020.25;;;14.48;49.25
64158;BME280;50449;51.528;5.076;2023-04-25T01:26:06;101017.81;;;14.46;49.38
64158;BME280;50449;51.528;5.076;2023-04-25T01:28:33;101026.78;;;14.47;49.58
64158;BME280;50449;51.528;5.076;2023-04-25T01:30:58;101026.22;;;14.45;49.39
64158;BME280;50449;51.528;5.076;2023-04-25T01:33:24;101036.28;;;14.44;49.38
64158;BME280;50449;51.528;5.076;2023-04-25T01:35:50;101032.75;;;14.44;49.46
64158;BME280;50449;51.528;5.076;2023-04-25T01:38:15;101033.00;;;14.42;49.43
64158;BME280;50449;51.528;5.076;2023-04-25T01:40:41;101034.91;;;14.42;49.14
64158;BME280;50449;51.528;5.076;2023-04-25T01:43:09;101038.66;;;14.41;49.25
64158;BME280;50449;51.528;5.076;2023-04-25T01:45:37;101029.72;;;14.40;49.44
64158;BME280;50449;51.528;5.076;2023-04-25T01:48:09;101029.97;;;14.39;49.39
64158;BME280;50449;51.528;5.076;2023-04-25T01:50:34;101044.38;;;14.39;49.33
64158;BME280;50449;51.528;5.076;2023-04-25T01:53:00;101043.00;;;14.37;49.42
64158;BME280;50449;51.528;5.076;2023-04-25T01:55:27;101041.34;;;14.36;49.59
64158;BME280;50449;51.528;5.076;2023-04-25T01:57:52;101042.16;;;14.36;49.59
64158;BME280;50449;51.528;5.076;2023-04-25T02:00:18;101042.44;;;14.35;49.35
64158;BME280;50449;51.528;5.076;2023-04-25T02:02:43;101040.78;;;14.34;49.43
64158;BME280;50449;51.528;5.076;2023-04-25T02:05:09;101051.94;;;14.32;49.52
64158;BME280;50449;51.528;5.076;2023-04-25T02:07:34;101059.28;;;14.32;49.55
64158;BME280;50449;51.528;5.076;2023-04-25T02:10:00;101054.91;;;14.31;49.53
64158;BME280;50449;51.528;5.076;2023-04-25T02:12:27;101060.34;;;14.31;49.31
64158;BME280;50449;51.528;5.076;2023-04-25T02:14:52;101050.81;;;14.28;49.46
64158;BME280;50449;51.528;5.076;2023-04-25T02:17:18;101056.25;;;14.28;49.60
64158;BME280;50449;51.528;5.076;2023-04-25T02:19:44;101051.09;;;14.26;49.45
64158;BME280;50449;51.528;5.076;2023-04-25T02:22:10;101057.59;;;14.25;49.52
64158;BME280;50449;51.528;5.076;2023-04-25T02:24:35;101059.50;;;14.25;49.47
64158;BME280;50449;51.528;5.076;2023-04-25T02:27:01;101064.09;;;14.24;49.64
64158;BME280;50449;51.528;5.076;2023-04-25T02:29:26;101064.34;;;14.23;49.45
64158;BME280;50449;51.528;5.076;2023-04-25T02:31:52;101058.09;;;14.22;49.63
64158;BME280;50449;51.528;5.076;2023-04-25T02:34:17;101056.47;;;14.21;49.67
64158;BME280;50449;51.528;5.076;2023-04-25T02:36:42;101061.06;;;14.21;49.50
64158;BME280;50449;51.528;5.076;2023-04-25T02:39:08;101061.06;;;14.21;49.39
64158;BME280;50449;51.528;5.076;2023-04-25T02:41:33;101063.25;;;14.19;49.53
64158;BME280;50449;51.528;5.076;2023-04-25T02:43:58;101070.56;;;14.18;49.66
64158;BME280;50449;51.528;5.076;2023-04-25T02:46:24;101070.84;;;14.17;50.05
64158;BME280;50449;51.528;5.076;2023-04-25T02:48:49;101070.84;;;14.17;49.39
64158;BME280;50449;51.528;5.076;2023-04-25T02:51:15;101071.09;;;14.15;49.53
64158;BME280;50449;51.528;5.076;2023-04-25T02:53:41;101064.03;;;14.14;49.86
64158;BME280;50449;51.528;5.076;2023-04-25T02:56:07;101071.34;;;14.14;49.55
64158;BME280;50449;51.528;5.076;2023-04-25T02:58:32;101063.47;;;14.12;49.67
64158;BME280;50449;51.528;5.076;2023-04-25T03:00:58;101064.53;;;14.11;49.69
64158;BME280;50449;51.528;5.076;2023-04-25T03:03:23;101063.97;;;14.09;49.59
64158;BME280;50449;51.528;5.076;2023-04-25T03:05:49;101060.44;;;14.09;49.51
64158;BME280;50449;51.528;5.076;2023-04-25T03:08:15;101063.16;;;14.09;49.64
64158;BME280;50449;51.528;5.076;2023-04-25T03:10:41;101065.03;;;14.08;49.39
64158;BME280;50449;51.528;5.076;2023-04-25T03:13:06;101060.69;;;14.07;49.56
64158;BME280;50449;51.528;5.076;2023-04-25T03:15:32;101065.31;;;14.06;49.48
64158;BME280;50449;51.528;5.076;2023-04-25T03:17:57;101062.84;;;14.05;49.43
64158;BME280;50449;51.528;5.076;2023-04-25T03:20:22;101072.91;;;14.04;49.70
64158;BME280;50449;51.528;5.076;2023-04-25T03:22:48;101065.00;;;14.03;49.82
64158;BME280;50449;51.528;5.076;2023-04-25T03:25:13;101066.09;;;14.02;49.66
64158;BME280;50449;51.528;5.076;2023-04-25T03:27:39;101062.56;;;14.01;49.55
64158;BME280;50449;51.528;5.076;2023-04-25T03:30:05;101069.84;;;14.01;49.34
64158;BME280;50449;51.528;5.076;2023-04-25T03:32:31;101066.31;;;14.00;49.53
64158;BME280;50449;51.528;5.076;2023-04-25T03:34:57;101063.88;;;13.99;49.53
64158;BME280;50449;51.528;5.076;2023-04-25T03:37:22;101062.22;;;13.98;49.51
64158;BME280;50449;51.528;5.076;2023-04-25T03:39:48;101064.94;;;13.98;49.44
64158;BME280;50449;51.528;5.076;2023-04-25T03:42:13;101079.63;;;13.97;49.52
64158;BME280;50449;51.528;5.076;2023-04-25T03:44:38;101075.25;;;13.96;49.58
64158;BME280;50449;51.528;5.076;2023-04-25T03:47:04;101079.03;;;13.95;49.45
64158;BME280;50449;51.528;5.076;2023-04-25T03:49:29;101077.41;;;13.94;49.58
64158;BME280;50449;51.528;5.076;2023-04-25T03:51:55;101076.56;;;13.93;49.70
64158;BME280;50449;51.528;5.076;2023-04-25T03:54:20;101077.66;;;13.92;49.59
64158;BME280;50449;51.528;5.076;2023-04-25T03:56:45;101085.81;;;13.92;49.67
64158;BME280;50449;51.528;5.076;2023-04-25T03:59:11;101087.97;;;13.90;49.25
64158;BME280;50449;51.528;5.076;2023-04-25T04:01:36;101086.34;;;13.89;49.61
64158;BME280;50449;51.528;5.076;2023-04-25T04:04:02;101091.75;;;13.89;49.87
64158;BME280;50449;51.528;5.076;2023-04-25T04:06:27;101100.16;;;13.88;49.72
64158;BME280;50449;51.528;5.076;2023-04-25T04:08:53;101093.09;;;13.87;49.61
64158;BME280;50449;51.528;5.076;2023-04-25T04:11:19;101099.34;;;13.87;49.81
64158;BME280;50449;51.528;5.076;2023-04-25T04:13:45;101089.56;;;13.86;49.70
64158;BME280;50449;51.528;5.076;2023-04-25T04:16:11;101091.44;;;13.85;49.70
64158;BME280;50449;51.528;5.076;2023-04-25T04:18:36;101092.53;;;13.84;49.71
64158;BME280;50449;51.528;5.076;2023-04-25T04:21:02;101094.44;;;13.84;49.56
64158;BME280;50449;51.528;5.076;2023-04-25T04:23:27;101092.78;;;13.83;49.69
64158;BME280;50449;51.528;5.076;2023-04-25T04:25:53;101101.19;;;13.81;49.33
64158;BME280;50449;51.528;5.076;2023-04-25T04:28:19;101103.91;;;13.81;49.86
64158;BME280;50449;51.528;5.076;2023-04-25T04:30:45;101096.81;;;13.80;49.55
64158;BME280;50449;51.528;5.076;2023-04-25T04:33:11;101099.53;;;13.80;49.75
64158;BME280;50449;51.528;5.076;2023-04-25T04:35:37;101100.63;;;13.79;49.68
64158;BME280;50449;51.528;5.076;2023-04-25T04:38:03;101100.63;;;13.79;49.71
64158;BME280;50449;51.528;5.076;2023-04-25T04:40:28;101101.72;;;13.78;49.73
64158;BME280;50449;51.528;5.076;2023-04-25T04:42:56;101100.88;;;13.78;49.55
64158;BME280;50449;51.528;5.076;2023-04-25T04:45:22;101099.22;;;13.77;49.60
64158;BME280;50449;51.528;5.076;2023-04-25T04:47:49;101113.91;;;13.76;49.62
64158;BME280;50449;51.528;5.076;2023-04-25T04:50:15;101110.34;;;13.75;49.80
64158;BME280;50449;51.528;5.076;2023-04-25T04:52:41;101116.84;;;13.74;49.84
64158;BME280;50449;51.528;5.076;2023-04-25T04:55:07;101119.31;;;13.76;49.60
64158;BME280;50449;51.528;5.076;2023-04-25T04:57:33;101126.91;;;13.74;49.62
64158;BME280;50449;51.528;5.076;2023-04-25T04:59:59;101135.03;;;13.74;49.56
64158;BME280;50449;51.528;5.076;2023-04-25T05:02:25;101131.75;;;13.72;49.64
64158;BME280;50449;51.528;5.076;2023-04-25T05:04:51;101129.03;;;13.72;49.64
64158;BME280;50449;51.528;5.076;2023-04-25T05:07:18;101133.66;;;13.71;49.71
64158;BME280;50449;51.528;5.076;2023-04-25T05:09:44;101132.81;;;13.71;49.84
64158;BME280;50449;51.528;5.076;2023-04-25T05:12:10;101140.41;;;13.69;49.75
64158;BME280;50449;51.528;5.076;2023-04-25T05:14:35;101145.00;;;13.68;49.58
64158;BME280;50449;51.528;5.076;2023-04-25T05:17:01;101139.84;;;13.67;49.66
64158;BME280;50449;51.528;5.076;2023-04-25T05:19:26;101149.88;;;13.66;49.72
64158;BME280;50449;51.528;5.076;2023-04-25T05:21:52;101152.84;;;13.64;49.57
64158;BME280;50449;51.528;5.076;2023-04-25T05:24:17;101163.69;;;13.64;49.83
64158;BME280;50449;51.528;5.076;2023-04-25T05:26:43;101163.94;;;13.63;49.54
64158;BME280;50449;51.528;5.076;2023-04-25T05:29:08;101167.50;;;13.63;49.71
64158;BME280;50449;51.528;5.076;2023-04-25T05:31:36;101168.56;;;13.62;49.70
64158;BME280;50449;51.528;5.076;2023-04-25T05:34:02;101177.53;;;13.63;49.69
64158;BME280;50449;51.528;5.076;2023-04-25T05:36:27;101174.25;;;13.61;49.81
64158;BME280;50449;51.528;5.076;2023-04-25T05:38:53;101185.13;;;13.61;49.77
64158;BME280;50449;51.528;5.076;2023-04-25T05:41:18;101185.13;;;13.61;49.64
64158;BME280;50449;51.528;5.076;2023-04-25T05:43:44;101183.47;;;13.60;49.79
64158;BME280;50449;51.528;5.076;2023-04-25T05:46:12;101186.16;;;13.60;49.66
64158;BME280;50449;51.528;5.076;2023-04-25T05:48:38;101189.97;;;13.59;49.68
64158;BME280;50449;51.528;5.076;2023-04-25T05:51:03;101192.09;;;13.57;49.79
64158;BME280;50449;51.528;5.076;2023-04-25T05:53:29;101194.00;;;13.56;49.77
64158;BME280;50449;51.528;5.076;2023-04-25T05:55:54;101198.63;;;13.56;49.69
64158;BME280;50449;51.528;5.076;2023-04-25T05:58:20;101199.69;;;13.55;49.75
64158;BME280;50449;51.528;5.076;2023-04-25T06:00:45;101191.81;;;13.53;49.89
64158;BME280;50449;51.528;5.076;2023-04-25T06:03:11;101203.47;;;13.54;49.67
64158;BME280;50449;51.528;5.076;2023-04-25T06:05:38;101197.22;;;13.53;49.46
64158;BME280;50449;51.528;5.076;2023-04-25T06:08:04;101198.28;;;13.52;49.65
64158;BME280;50449;51.528;5.076;2023-04-25T06:10:29;101200.19;;;13.52;49.82
64158;BME280;50449;51.528;5.076;2023-04-25T06:12:55;101213.75;;;13.52;49.71
64158;BME280;50449;51.528;5.076;2023-04-25T06:15:20;101211.84;;;13.52;49.70
64158;BME280;50449;51.528;5.076;2023-04-25T06:17:45;101213.75;;;13.52;49.68
64158;BME280;50449;51.528;5.076;2023-04-25T06:20:11;101224.84;;;13.50;49.63
64158;BME280;50449;51.528;5.076;2023-04-25T06:22:36;101231.13;;;13.51;49.66
64158;BME280;50449;51.528;5.076;2023-04-25T06:25:02;101226.75;;;13.50;49.80
64158;BME280;50449;51.528;5.076;2023-04-25T06:27:29;101227.84;;;13.49;49.73
64158;BME280;50449;51.528;5.076;2023-04-25T06:29:55;101235.16;;;13.48;49.74
64158;BME280;50449;51.528;5.076;2023-04-25T06:32:20;101234.31;;;13.48;49.72
64158;BME280;50449;51.528;5.076;2023-04-25T06:34:46;101232.69;;;13.47;49.68
64158;BME280;50449;51.528;5.076;2023-04-25T06:37:11;101239.75;;;13.48;49.70
64158;BME280;50449;51.528;5.076;2023-04-25T06:39:36;101237.88;;;13.48;49.70
64158;BME280;50449;51.528;5.076;2023-04-25T06:42:02;101244.34;;;13.47;49.57
64158;BME280;50449;51.528;5.076;2023-04-25T06:44:27;101234.59;;;13.46;49.75
64158;BME280;50449;51.528;5.076;2023-04-25T06:46:54;101244.13;;;13.49;49.53
64158;BME280;50449;51.528;5.076;2023-04-25T06:49:20;101233.25;;;13.49;49.67
64158;BME280;50449;51.528;5.076;2023-04-25T06:51:45;101241.41;;;13.49;49.63
64158;BME280;50449;51.528;5.076;2023-04-25T06:54:10;101242.44;;;13.48;49.73
64158;BME280;50449;51.528;5.076;2023-04-25T06:56:36;101242.22;;;13.49;49.62
64158;BME280;50449;51.528;5.076;2023-04-25T06:59:01;101249.53;;;13.49;49.51
64158;BME280;50449;51.528;5.076;2023-04-25T07:01:27;101254.97;;;13.49;49.68
64158;BME280;50449;51.528;5.076;2023-04-25T07:03:52;101256.03;;;13.48;49.65
64158;BME280;50449;51.528;5.076;2023-04-25T07:06:17;101254.16;;;13.48;49.68
64158;BME280;50449;51.528;5.076;2023-04-25T07:08:43;101255.22;;;13.47;49.83
64158;BME280;50449;51.528;5.076;2023-04-25T07:11:08;101265.81;;;13.49;49.63
64158;BME280;50449;51.528;5.076;2023-04-25T07:13:34;101270.44;;;13.48;49.66
64158;BME280;50449;51.528;5.076;2023-04-25T07:15:59;101273.97;;;13.49;49.88
64158;BME280;50449;51.528;5.076;2023-04-25T07:18:25;101274.78;;;13.49;49.72
64158;BME280;50449;51.528;5.076;2023-04-25T07:20:50;101272.88;;;13.50;49.80
64158;BME280;50449;51.528;5.076;2023-04-25T07:23:15;101283.75;;;13.50;49.72
64158;BME280;50449;51.528;5.076;2023-04-25T07:25:41;101278.31;;;13.50;49.72
64158;BME280;50449;51.528;5.076;2023-04-25T07:28:06;101286.22;;;13.51;49.55
64158;BME280;50449;51.528;5.076;2023-04-25T07:30:32;101283.75;;;13.50;49.65
64158;BME280;50449;51.528;5.076;2023-04-25T07:32:58;101288.13;;;13.51;49.65
64158;BME280;50449;51.528;5.076;2023-04-25T07:35:24;101300.03;;;13.50;49.38
64158;BME280;50449;51.528;5.076;2023-04-25T07:37:49;101307.13;;;13.51;49.68
64158;BME280;50449;51.528;5.076;2023-04-25T07:40:15;101305.22;;;13.51;49.56
64158;BME280;50449;51.528;5.076;2023-04-25T07:42:41;101308.75;;;13.52;49.93
64158;BME280;50449;51.528;5.076;2023-04-25T07:45:07;101312.28;;;13.52;49.57
64158;BME280;50449;51.528;5.076;2023-04-25T07:47:32;101316.66;;;13.53;49.72
64158;BME280;50449;51.528;5.076;2023-04-25T07:49:58;101316.88;;;13.52;49.69
64158;BME280;50449;51.528;5.076;2023-04-25T07:52:23;101319.09;;;13.55;49.46
64158;BME280;50449;51.528;5.076;2023-04-25T07:54:49;101321.00;;;13.54;49.55
64158;BME280;50449;51.528;5.076;2023-04-25T07:57:14;101330.53;;;13.57;49.68
64158;BME280;50449;51.528;5.076;2023-04-25T07:59:39;101331.34;;;13.57;49.58
64158;BME280;50449;51.528;5.076;2023-04-25T08:02:05;101328.63;;;13.57;49.55
64158;BME280;50449;51.528;5.076;2023-04-25T08:04:30;101329.44;;;13.58;49.38
64158;BME280;50449;51.528;5.076;2023-04-25T08:06:56;101327.31;;;13.60;49.51
64158;BME280;50449;51.528;5.076;2023-04-25T08:09:21;101331.44;;;13.62;49.49
64158;BME280;50449;51.528;5.076;2023-04-25T08:11:47;101335.81;;;13.63;49.40
64158;BME280;50449;51.528;5.076;2023-04-25T08:14:13;101341.25;;;13.63;49.42
64158;BME280;50449;51.528;5.076;2023-04-25T08:16:38;101343.69;;;13.65;49.52
64158;BME280;50449;51.528;5.076;2023-04-25T08:19:04;101348.06;;;13.66;49.34
64158;BME280;50449;51.528;5.076;2023-04-25T08:21:30;101346.41;;;13.65;49.47
64158;BME280;50449;51.528;5.076;2023-04-25T08:23:56;101356.44;;;13.64;49.54
64158;BME280;50449;51.528;5.076;2023-04-25T08:26:23;101349.09;;;13.65;49.53
64158;BME280;50449;51.528;5.076;2023-04-25T08:28:50;101346.75;;;13.69;49.32
64158;BME280;50449;51.528;5.076;2023-04-25T08:31:16;101356.00;;;13.73;49.45
64158;BME280;50449;51.528;5.076;2023-04-25T08:33:41;101354.97;;;13.74;49.31
64158;BME280;50449;51.528;5.076;2023-04-25T08:36:07;101362.84;;;13.75;49.39
64158;BME280;50449;51.528;5.076;2023-04-25T08:38:32;101357.16;;;13.77;49.26
64158;BME280;50449;51.528;5.076;2023-04-25T08:40:59;101372.38;;;13.78;49.40
64158;BME280;50449;51.528;5.076;2023-04-25T08:43:26;101369.66;;;13.78;49.53
64158;BME280;50449;51.528;5.076;2023-04-25T08:46:00;101382.19;;;13.79;49.45
64158;BME280;50449;51.528;5.076;2023-04-25T08:48:27;101390.06;;;13.80;49.72
64158;BME280;50449;51.528;5.076;2023-04-25T08:50:55;101392.78;;;13.80;49.94
64158;BME280;50449;51.528;5.076;2023-04-25T08:53:29;101389.00;;;13.81;49.93
64158;BME280;50449;51.528;5.076;2023-04-25T08:55:56;101385.78;;;13.84;49.69
64158;BME280;50449;51.528;5.076;2023-04-25T08:58:22;101390.72;;;13.88;49.75
64158;BME280;50449;51.528;5.076;2023-04-25T09:00:48;101396.72;;;13.90;49.75
64158;BME280;50449;51.528;5.076;2023-04-25T09:03:15;101397.63;;;13.95;49.59
64158;BME280;50449;51.528;5.076;2023-04-25T09:05:41;101403.41;;;13.99;49.68
64158;BME280;50449;51.528;5.076;2023-04-25T09:08:07;101403.94;;;14.01;49.73
64158;BME280;50449;51.528;5.076;2023-04-25T09:10:33;101414.06;;;14.05;49.69
64158;BME280;50449;51.528;5.076;2023-04-25T09:13:25;101422.81;;;14.07;49.63
64158;BME280;50449;51.528;5.076;2023-04-25T09:15:53;101422.28;;;14.11;49.54
64158;BME280;50449;51.528;5.076;2023-04-25T09:18:29;101425.34;;;14.14;49.68
64158;BME280;50449;51.528;5.076;2023-04-25T09:21:05;101422.38;;;14.16;49.89
64158;BME280;50449;51.528;5.076;2023-04-25T09:23:39;101422.72;;;14.19;49.94
64158;BME280;50449;51.528;5.076;2023-04-25T09:26:06;101430.13;;;14.24;49.75
64158;BME280;50449;51.528;5.076;2023-04-25T09:28:32;101433.94;;;14.28;49.88
64158;BME280;50449;51.528;5.076;2023-04-25T09:31:00;101435.94;;;14.33;49.84
64158;BME280;50449;51.528;5.076;2023-04-25T09:33:31;101443.56;;;14.36;49.89
64158;BME280;50449;51.528;5.076;2023-04-25T09:36:16;101431.38;;;14.38;49.95
64158;BME280;50449;51.528;5.076;2023-04-25T09:38:44;101434.44;;;14.42;50.00
64158;BME280;50449;51.528;5.076;2023-04-25T09:41:10;101434.75;;;14.45;50.13
64158;BME280;50449;51.528;5.076;2023-04-25T09:43:37;101433.16;;;14.49;49.72
64158;BME280;50449;51.528;5.076;2023-04-25T09:46:07;101434.31;;;14.54;50.06
64158;BME280;50449;51.528;5.076;2023-04-25T09:48:33;101442.00;;;14.57;49.77
64158;BME280;50449;51.528;5.076;2023-04-25T09:51:10;101436.06;;;14.60;49.79
64158;BME280;50449;51.528;5.076;2023-04-25T09:53:41;101433.63;;;14.63;49.84
64158;BME280;50449;51.528;5.076;2023-04-25T09:56:08;101439.13;;;14.68;49.81
64158;BME280;50449;51.528;5.076;2023-04-25T09:58:35;101441.09;;;14.73;50.02
64158;BME280;50449;51.528;5.076;2023-04-25T10:01:06;101436.81;;;14.77;50.03
64158;BME280;50449;51.528;5.076;2023-04-25T10:03:34;101440.91;;;14.80;49.83
64158;BME280;50449;51.528;5.076;2023-04-25T10:06:02;101439.59;;;14.82;50.03
64158;BME280;50449;51.528;5.076;2023-04-25T10:08:35;101445.34;;;14.86;50.14
64158;BME280;50449;51.528;5.076;2023-04-25T10:11:02;101458.41;;;14.89;50.42
64158;BME280;50449;51.528;5.076;2023-04-25T10:13:32;101461.19;;;14.94;50.15
64158;BME280;50449;51.528;5.076;2023-04-25T10:15:59;101460.72;;;14.97;50.04
64158;BME280;50449;51.528;5.076;2023-04-25T10:18:27;101471.91;;;15.01;50.43
64158;BME280;50449;51.528;5.076;2023-04-25T10:20:54;101464.03;;;15.04;50.46
64158;BME280;50449;51.528;5.076;2023-04-25T10:23:21;101470.91;;;15.07;50.37
64158;BME280;50449;51.528;5.076;2023-04-25T10:25:47;101478.25;;;15.11;50.46
64158;BME280;50449;51.528;5.076;2023-04-25T10:28:13;101470.69;;;15.13;50.54
64158;BME280;50449;51.528;5.076;2023-04-25T10:30:57;101473.97;;;15.15;50.86
64158;BME280;50449;51.528;5.076;2023-04-25T10:33:32;101475.94;;;15.20;50.64
64158;BME280;50449;51.528;5.076;2023-04-25T10:35:58;101472.94;;;15.22;50.89
64158;BME280;50449;51.528;5.076;2023-04-25T10:38:25;101477.38;;;15.28;50.87
64158;BME280;50449;51.528;5.076;2023-04-25T10:41:07;101489.66;;;15.30;50.65
64158;BME280;50449;51.528;5.076;2023-04-25T10:46:26;101479.06;;;15.34;50.76
64158;BME280;50449;51.528;5.076;2023-04-25T10:49:02;101483.97;;;15.37;50.48
64158;BME280;50449;51.528;5.076;2023-04-25T10:51:31;101488.94;;;15.40;50.83
64158;BME280;50449;51.528;5.076;2023-04-25T10:54:05;101475.38;;;15.45;50.59
64158;BME280;50449;51.528;5.076;2023-04-25T10:56:32;101487.66;;;15.48;50.46
64158;BME280;50449;51.528;5.076;2023-04-25T10:59:11;101486.88;;;15.52;50.64
64158;BME280;50449;51.528;5.076;2023-04-25T11:01:39;101479.00;;;15.56;50.50
64158;BME280;50449;51.528;5.076;2023-04-25T11:04:05;101492.38;;;15.57;50.63
64158;BME280;50449;51.528;5.076;2023-04-25T11:06:58;101498.38;;;15.59;50.39
64158;BME280;50449;51.528;5.076;2023-04-25T11:09:26;101492.66;;;15.61;50.13
64158;BME280;50449;51.528;5.076;2023-04-25T11:11:55;101491.56;;;15.62;50.46
64158;BME280;50449;51.528;5.076;2023-04-25T11:14:21;101493.81;;;15.65;50.67
64158;BME280;50449;51.528;5.076;2023-04-25T11:16:47;101490.31;;;15.70;50.44
64158;BME280;50449;51.528;5.076;2023-04-25T11:19:12;101493.38;;;15.73;50.24
64158;BME280;50449;51.528;5.076;2023-04-25T11:21:38;101504.53;;;15.77;50.25
64158;BME280;50449;51.528;5.076;2023-04-25T11:24:03;101505.94;;;15.79;50.23
64158;BME280;50449;51.528;5.076;2023-04-25T11:26:29;101516.81;;;15.79;50.12
64158;BME280;50449;51.528;5.076;2023-04-25T11:28:59;101514.66;;;15.82;50.04
64158;BME280;50449;51.528;5.076;2023-04-25T11:31:29;101517.41;;;15.82;50.01
64158;BME280;50449;51.528;5.076;2023-04-25T11:33:57;101519.88;;;15.83;50.09
64158;BME280;50449;51.528;5.076;2023-04-25T11:36:25;101520.44;;;15.85;49.92
64158;BME280;50449;51.528;5.076;2023-04-25T11:38:53;101522.66;;;15.88;49.82
64158;BME280;50449;51.528;5.076;2023-04-25T11:41:19;101516.09;;;15.89;50.07
64158;BME280;50449;51.528;5.076;2023-04-25T11:43:45;101506.88;;;15.90;50.16
64158;BME280;50449;51.528;5.076;2023-04-25T11:46:10;101507.97;;;15.94;50.31
64158;BME280;50449;51.528;5.076;2023-04-25T11:48:40;101512.88;;;15.97;49.85
64158;BME280;50449;51.528;5.076;2023-04-25T11:51:06;101512.66;;;15.99;49.91
64158;BME280;50449;51.528;5.076;2023-04-25T11:53:31;101517.84;;;16.00;50.02
64158;BME280;50449;51.528;5.076;2023-04-25T11:55:57;101516.75;;;16.01;50.15
64158;BME280;50449;51.528;5.076;2023-04-25T11:58:22;101522.78;;;16.04;49.89
64158;BME280;50449;51.528;5.076;2023-04-25T12:00:48;101517.88;;;16.06;50.28
64158;BME280;50449;51.528;5.076;2023-04-25T12:03:13;101511.91;;;16.09;50.14
64158;BME280;50449;51.528;5.076;2023-04-25T12:05:38;101519.84;;;16.10;49.91
64158;BME280;50449;51.528;5.076;2023-04-25T12:08:15;101508.66;;;16.12;49.60
64158;BME280;50449;51.528;5.076;2023-04-25T12:10:43;101516.59;;;16.13;49.49
64158;BME280;50449;51.528;5.076;2023-04-25T12:13:25;101510.84;;;16.15;49.71
64158;BME280;50449;51.528;5.076;2023-04-25T12:15:53;101521.75;;;16.15;49.65
64158;BME280;50449;51.528;5.076;2023-04-25T12:18:24;101532.66;;;16.15;49.82
64158;BME280;50449;51.528;5.076;2023-04-25T12:20:53;101542.44;;;16.11;49.75
64158;BME280;50449;51.528;5.076;2023-04-25T12:23:25;101543.84;;;16.13;49.47
64158;BME280;50449;51.528;5.076;2023-04-25T12:25:51;101552.25;;;16.12;49.60
64158;BME280;50449;51.528;5.076;2023-04-25T12:28:18;101545.22;;;16.16;49.46
64158;BME280;50449;51.528;5.076;2023-04-25T12:30:56;101541.41;;;16.17;49.47
64158;BME280;50449;51.528;5.076;2023-04-25T12:33:24;101549.31;;;16.18;49.59
64158;BME280;50449;51.528;5.076;2023-04-25T12:35:49;101560.53;;;16.22;49.61
64158;BME280;50449;51.528;5.076;2023-04-25T12:38:26;101552.34;;;16.22;49.28
64158;BME280;50449;51.528;5.076;2023-04-25T12:40:52;101552.66;;;16.26;49.43
64158;BME280;50449;51.528;5.076;2023-04-25T12:43:18;101556.19;;;16.26;49.47
64158;BME280;50449;51.528;5.076;2023-04-25T12:45:44;101550.47;;;16.28;49.24
64158;BME280;50449;51.528;5.076;2023-04-25T12:48:10;101561.69;;;16.31;49.15
64158;BME280;50449;51.528;5.076;2023-04-25T12:50:36;101550.25;;;16.34;49.35